createdAt,value
2019-02-09T00:00:51.565Z,6.70
2019-02-09T00:03:20.855Z,6.70
2019-02-09T00:05:50.146Z,6.70
2019-02-09T00:08:19.426Z,6.70
2019-02-09T00:10:48.710Z,6.70
2019-02-09T00:13:18.006Z,6.70
2019-02-09T00:15:47.291Z,6.60
2019-02-09T00:18:16.634Z,6.70
2019-02-09T00:20:45.921Z,6.70
2019-02-09T00:23:15.263Z,6.70
2019-02-09T00:25:44.554Z,6.70
2019-02-09T00:28:13.826Z,6.70
2019-02-09T00:30:43.115Z,6.70
2019-02-09T00:33:12.394Z,6.70
2019-02-09T00:35:41.924Z,6.70
2019-02-09T00:38:11.535Z,6.60
2019-02-09T00:40:40.895Z,6.60
2019-02-09T00:43:10.170Z,6.70
2019-02-09T00:45:39.540Z,6.60
2019-02-09T00:48:08.815Z,6.60
2019-02-09T00:50:38.106Z,6.60
2019-02-09T00:53:07.374Z,6.60
2019-02-09T00:55:36.663Z,6.60
2019-02-09T00:58:05.950Z,6.50
2019-02-09T01:00:35.310Z,6.50
2019-02-09T01:03:05.044Z,6.50
2019-02-09T01:05:37.227Z,6.40
2019-02-09T01:08:06.928Z,6.40
2019-02-09T01:10:36.201Z,6.40
2019-02-09T01:13:05.942Z,6.40
2019-02-09T01:15:35.550Z,6.40
2019-02-09T01:18:06.439Z,6.40
2019-02-09T01:20:36.098Z,6.40
2019-02-09T01:23:05.539Z,6.40
2019-02-09T01:25:35.613Z,6.40
2019-02-09T01:28:05.361Z,6.40
2019-02-09T01:30:35.202Z,6.30
2019-02-09T01:33:04.750Z,6.30
2019-02-09T01:35:34.210Z,6.30
2019-02-09T01:38:03.511Z,6.20
2019-02-09T01:40:32.800Z,6.10
2019-02-09T01:43:02.186Z,6.10
2019-02-09T01:45:32.702Z,6.10
2019-02-09T01:48:02.314Z,6.10
2019-02-09T01:50:33.047Z,6.10
2019-02-09T01:53:02.635Z,6.10
2019-02-09T01:55:32.247Z,6.10
2019-02-09T01:58:01.540Z,6.10
2019-02-09T02:00:35.598Z,6.00
2019-02-09T02:03:05.426Z,5.90
2019-02-09T02:05:34.715Z,5.90
2019-02-09T02:08:04.359Z,5.80
2019-02-09T02:10:35.579Z,5.80
2019-02-09T02:13:06.869Z,5.70
2019-02-09T02:15:37.906Z,5.70
2019-02-09T02:18:07.934Z,5.70
2019-02-09T02:20:37.374Z,5.70
2019-02-09T02:23:06.909Z,5.70
2019-02-09T02:25:36.247Z,5.60
2019-02-09T02:28:05.781Z,5.60
2019-02-09T02:30:37.479Z,5.60
2019-02-09T02:33:08.161Z,5.50
2019-02-09T02:35:38.191Z,5.50
2019-02-09T02:38:07.891Z,5.50
2019-02-09T02:40:37.517Z,5.50
2019-02-09T02:43:06.871Z,5.50
2019-02-09T02:45:36.139Z,5.50
2019-02-09T02:48:05.593Z,5.50
2019-02-09T02:50:35.295Z,5.50
2019-02-09T02:53:04.754Z,5.50
2019-02-09T02:55:34.089Z,5.50
2019-02-09T02:58:03.702Z,5.60
2019-02-09T03:00:34.123Z,5.60
2019-02-09T03:03:03.664Z,5.60
2019-02-09T03:05:33.117Z,5.60
2019-02-09T03:08:02.631Z,5.60
2019-02-09T03:10:31.910Z,5.70
2019-02-09T03:13:01.187Z,5.70
2019-02-09T03:15:35.234Z,5.70
2019-02-09T03:18:05.293Z,5.70
2019-02-09T03:20:34.566Z,5.70
2019-02-09T03:23:04.504Z,5.70
2019-02-09T03:25:35.804Z,5.70
2019-02-09T03:28:05.759Z,5.70
2019-02-09T03:30:47.107Z,5.70
2019-02-09T03:33:06.019Z,5.70
2019-02-09T03:35:35.292Z,5.70
2019-02-09T03:38:05.355Z,5.70
2019-02-09T03:40:34.648Z,5.80
2019-02-09T03:43:03.918Z,5.80
2019-02-09T03:45:34.346Z,6.00
2019-02-09T03:48:04.777Z,6.30
2019-02-09T03:50:34.121Z,6.40
2019-02-09T03:53:03.406Z,6.50
2019-02-09T03:55:32.689Z,6.60
2019-02-09T03:58:02.293Z,6.60
2019-02-09T04:00:32.411Z,6.60
2019-02-09T04:03:02.543Z,6.70
2019-02-09T04:05:31.830Z,6.70
2019-02-09T04:08:01.127Z,6.70
2019-02-09T04:10:30.400Z,6.70
2019-02-09T04:12:59.765Z,6.80
2019-02-09T04:15:29.535Z,6.70
2019-02-09T04:17:58.875Z,6.70
2019-02-09T04:20:28.659Z,6.70
2019-02-09T04:22:57.939Z,6.70
2019-02-09T04:25:27.227Z,6.70
2019-02-09T04:27:56.499Z,6.70
2019-02-09T04:30:27.826Z,6.60
2019-02-09T04:32:57.158Z,6.60
2019-02-09T04:35:26.520Z,6.60
2019-02-09T04:37:55.879Z,6.50
2019-02-09T04:40:29.952Z,6.40
2019-02-09T04:42:59.374Z,6.40
2019-02-09T04:45:28.788Z,6.50
2019-02-09T04:47:58.070Z,6.50
2019-02-09T04:50:27.632Z,6.50
2019-02-09T04:52:57.853Z,6.50
2019-02-09T04:55:27.692Z,6.60
2019-02-09T04:57:57.490Z,6.60
2019-02-09T05:00:31.315Z,6.60
2019-02-09T05:03:01.026Z,6.60
2019-02-09T05:05:31.046Z,6.60
2019-02-09T05:08:00.336Z,6.70
2019-02-09T05:10:29.610Z,6.70
2019-02-09T05:12:58.887Z,6.70
2019-02-09T05:15:28.239Z,6.80
2019-02-09T05:17:57.771Z,6.80
2019-02-09T05:20:27.068Z,6.80
2019-02-09T05:22:56.361Z,6.90
2019-02-09T05:25:25.642Z,6.90
2019-02-09T05:27:55.247Z,6.90
2019-02-09T05:30:28.732Z,6.80
2019-02-09T05:33:00.524Z,6.90
2019-02-09T05:35:29.507Z,6.90
2019-02-09T05:37:58.803Z,6.90
2019-02-09T05:40:28.154Z,6.90
2019-02-09T05:42:57.430Z,6.90
2019-02-09T05:45:31.243Z,7.00
2019-02-09T05:48:00.547Z,6.90
2019-02-09T05:50:29.910Z,6.90
2019-02-09T05:52:59.191Z,6.90
2019-02-09T05:55:28.457Z,6.90
2019-02-09T05:57:58.630Z,6.90
2019-02-09T06:00:34.063Z,6.90
2019-02-09T06:03:03.525Z,6.90
2019-02-09T06:05:32.799Z,7.00
2019-02-09T06:08:02.099Z,7.00
2019-02-09T06:10:31.367Z,7.00
2019-02-09T06:13:00.658Z,6.90
2019-02-09T06:15:30.023Z,7.00
2019-02-09T06:17:59.306Z,7.00
2019-02-09T06:20:29.843Z,7.00
2019-02-09T06:22:59.130Z,6.90
2019-02-09T06:25:28.482Z,6.90
2019-02-09T06:27:57.947Z,6.90
2019-02-09T06:30:32.000Z,6.90
2019-02-09T06:33:01.281Z,6.90
2019-02-09T06:35:30.636Z,6.80
2019-02-09T06:37:59.959Z,6.80
2019-02-09T06:40:29.236Z,6.80
2019-02-09T06:42:58.518Z,6.80
2019-02-09T06:45:28.063Z,6.80
2019-02-09T06:48:22.887Z,6.80
2019-02-09T06:50:52.690Z,6.70
2019-02-09T06:53:21.981Z,6.70
2019-02-09T06:55:51.279Z,6.70
2019-02-09T06:58:20.547Z,6.70
2019-02-09T07:00:49.834Z,6.70
2019-02-09T07:03:19.118Z,6.70
2019-02-09T07:05:48.392Z,6.60
2019-02-09T07:08:17.688Z,6.60
2019-02-09T07:10:47.032Z,6.60
2019-02-09T07:13:16.323Z,6.60
2019-02-09T07:15:45.586Z,6.50
2019-02-09T07:18:14.876Z,6.50
2019-02-09T07:20:44.164Z,6.60
2019-02-09T07:23:13.443Z,6.60
2019-02-09T07:25:42.734Z,6.60
2019-02-09T07:28:12.006Z,6.50
2019-02-09T07:30:41.294Z,6.50
2019-02-09T07:33:10.743Z,6.50
2019-02-09T07:35:40.047Z,6.60
2019-02-09T07:38:09.319Z,6.60
2019-02-09T07:40:38.639Z,6.70
2019-02-09T07:43:07.891Z,6.70
2019-02-09T07:45:37.192Z,6.70
2019-02-09T07:48:07.176Z,6.80
2019-02-09T07:50:36.462Z,6.80
2019-02-09T07:53:06.078Z,6.80
2019-02-09T07:55:35.530Z,6.80
2019-02-09T07:58:05.559Z,6.80
2019-02-09T08:00:35.573Z,6.90
2019-02-09T08:03:06.102Z,7.00
2019-02-09T08:05:35.523Z,7.00
2019-02-09T08:08:05.061Z,7.10
2019-02-09T08:10:36.312Z,7.30
2019-02-09T08:13:08.731Z,7.50
2019-02-09T08:15:38.560Z,7.60
2019-02-09T08:18:08.987Z,7.70
2019-02-09T08:20:38.355Z,7.80
2019-02-09T08:23:11.928Z,7.90
2019-02-09T08:25:42.154Z,8.10
2019-02-09T08:28:12.562Z,8.30
2019-02-09T08:30:46.094Z,8.30
2019-02-09T08:33:15.368Z,8.10
2019-02-09T08:35:44.655Z,7.90
2019-02-09T08:38:16.102Z,7.80
2019-02-09T08:40:45.695Z,7.70
2019-02-09T08:43:15.126Z,7.60
2019-02-09T08:45:44.415Z,7.60
2019-02-09T08:48:13.775Z,7.60
2019-02-09T08:50:46.138Z,7.60
2019-02-09T08:53:15.640Z,7.70
2019-02-09T08:55:45.030Z,7.70
2019-02-09T08:58:14.319Z,7.70
2019-02-09T09:00:43.595Z,7.80
2019-02-09T09:03:12.874Z,7.80
2019-02-09T09:05:42.218Z,7.80
2019-02-09T09:08:11.495Z,7.90
2019-02-09T09:10:40.786Z,7.90
2019-02-09T09:13:10.326Z,8.00
2019-02-09T09:15:42.248Z,8.20
2019-02-09T09:18:11.751Z,8.50
2019-02-09T09:20:44.280Z,8.80
2019-02-09T09:23:13.618Z,9.10
2019-02-09T09:25:43.028Z,9.30
2019-02-09T09:28:12.647Z,9.50
2019-02-09T09:30:42.040Z,9.60
2019-02-09T09:33:11.339Z,9.50
2019-02-09T09:35:40.694Z,9.50
2019-02-09T09:38:10.022Z,9.40
2019-02-09T09:40:41.216Z,9.30
2019-02-09T09:43:10.750Z,9.20
2019-02-09T09:45:42.808Z,9.30
2019-02-09T09:48:15.082Z,9.40
2019-02-09T09:50:44.678Z,9.50
2019-02-09T09:53:13.974Z,9.70
2019-02-09T09:55:43.503Z,9.80
2019-02-09T09:58:12.851Z,9.80
2019-02-09T10:00:42.142Z,9.70
2019-02-09T10:03:11.918Z,9.70
2019-02-09T10:05:41.213Z,9.80
2019-02-09T10:08:10.587Z,9.80
2019-02-09T10:10:39.870Z,9.90
2019-02-09T10:13:09.147Z,9.90
2019-02-09T10:15:38.439Z,9.90
2019-02-09T10:18:07.787Z,10.00
2019-02-09T10:20:37.088Z,10.00
2019-02-09T10:23:06.435Z,9.90
2019-02-09T10:25:35.726Z,9.80
2019-02-09T10:28:05.441Z,9.80
2019-02-09T10:30:35.653Z,9.90
2019-02-09T10:33:05.021Z,10.00
2019-02-09T10:35:34.285Z,10.10
2019-02-09T10:38:03.875Z,10.30
2019-02-09T10:40:34.899Z,10.40
2019-02-09T10:43:06.539Z,10.50
2019-02-09T10:45:36.150Z,10.50
2019-02-09T10:48:07.264Z,10.50
2019-02-09T10:50:42.418Z,10.40
2019-02-09T10:53:11.807Z,10.40
2019-02-09T10:55:41.091Z,10.30
2019-02-09T10:58:10.835Z,10.20
2019-02-09T11:00:46.101Z,10.10
2019-02-09T11:03:15.382Z,10.20
2019-02-09T11:05:44.658Z,10.20
2019-02-09T11:08:14.014Z,10.10
2019-02-09T11:10:43.374Z,10.10
2019-02-09T11:13:13.035Z,10.10
2019-02-09T11:15:42.324Z,10.20
2019-02-09T11:18:11.719Z,10.30
2019-02-09T11:20:41.046Z,10.30
2019-02-09T11:23:10.322Z,10.30
2019-02-09T11:25:39.604Z,10.30
2019-02-09T11:28:09.034Z,10.30
2019-02-09T11:30:38.446Z,10.20
2019-02-09T11:33:07.743Z,10.20
2019-02-09T11:35:37.336Z,10.20
2019-02-09T11:38:06.938Z,10.30
2019-02-09T11:40:36.547Z,10.40
2019-02-09T11:43:06.976Z,10.30
2019-02-09T11:45:37.314Z,10.30
2019-02-09T11:48:06.963Z,10.40
2019-02-09T11:50:36.619Z,10.40
2019-02-09T11:53:06.042Z,10.60
2019-02-09T11:55:35.398Z,10.60
2019-02-09T11:58:04.686Z,10.60
2019-02-09T12:00:36.899Z,10.60
2019-02-09T12:03:14.810Z,10.60
2019-02-09T12:05:37.334Z,10.60
2019-02-09T12:08:07.260Z,10.60
2019-02-09T12:10:36.558Z,10.60
2019-02-09T12:13:07.112Z,10.60
2019-02-09T12:15:40.479Z,10.80
2019-02-09T12:18:12.376Z,11.00
2019-02-09T12:20:41.659Z,11.00
2019-02-09T12:23:11.246Z,11.00
2019-02-09T12:25:40.607Z,11.00
2019-02-09T12:28:11.859Z,10.90
2019-02-09T12:30:41.675Z,10.80
2019-02-09T12:33:12.390Z,10.80
2019-02-09T12:35:43.727Z,10.80
2019-02-09T12:38:13.024Z,10.90
2019-02-09T12:40:42.310Z,10.90
2019-02-09T12:43:11.595Z,11.10
2019-02-09T12:45:42.504Z,11.20
2019-02-09T12:48:12.137Z,11.20
2019-02-09T12:50:41.432Z,11.10
2019-02-09T12:53:10.712Z,11.00
2019-02-09T12:55:40.010Z,11.10
2019-02-09T12:58:09.287Z,11.10
2019-02-09T13:00:39.724Z,11.10
2019-02-09T13:03:11.749Z,11.10
2019-02-09T13:05:41.043Z,10.90
2019-02-09T13:08:10.321Z,10.80
2019-02-09T13:10:39.618Z,10.70
2019-02-09T13:13:08.910Z,10.70
2019-02-09T13:15:38.225Z,10.80
2019-02-09T13:18:08.056Z,10.70
2019-02-09T13:20:37.664Z,10.70
2019-02-09T13:23:08.284Z,10.60
2019-02-09T13:25:37.572Z,10.60
2019-02-09T13:28:06.959Z,10.50
2019-02-09T13:30:41.798Z,10.60
2019-02-09T13:33:12.458Z,10.60
2019-02-09T13:35:41.798Z,10.70
2019-02-09T13:38:11.103Z,10.70
2019-02-09T13:40:40.462Z,10.80
2019-02-09T13:43:09.976Z,10.90
2019-02-09T13:45:47.770Z,10.90
2019-02-09T13:48:17.380Z,11.00
2019-02-09T13:50:46.988Z,11.00
2019-02-09T13:53:16.276Z,10.90
2019-02-09T13:55:45.563Z,10.80
2019-02-09T13:58:14.879Z,10.70
2019-02-09T14:00:44.301Z,10.70
2019-02-09T14:03:13.600Z,10.60
2019-02-09T14:05:42.909Z,10.60
2019-02-09T14:08:12.259Z,10.50
2019-02-09T14:10:41.803Z,10.60
2019-02-09T14:13:14.705Z,10.60
2019-02-09T14:15:42.294Z,10.60
2019-02-09T14:18:11.866Z,10.60
2019-02-09T14:20:41.379Z,10.60
2019-02-09T14:23:10.679Z,10.50
2019-02-09T14:25:39.974Z,10.50
2019-02-09T14:28:09.335Z,10.50
2019-02-09T14:30:39.485Z,10.50
2019-02-09T14:33:10.588Z,10.40
2019-02-09T14:35:41.927Z,10.30
2019-02-09T14:38:11.438Z,10.20
2019-02-09T14:40:40.978Z,10.30
2019-02-09T14:43:10.620Z,10.30
2019-02-09T14:45:42.148Z,10.30
2019-02-09T14:48:11.618Z,10.30
2019-02-09T14:50:40.939Z,10.20
2019-02-09T14:53:10.355Z,10.20
2019-02-09T14:55:40.127Z,10.00
2019-02-09T14:58:09.686Z,10.00
2019-02-09T15:00:50.546Z,10.00
2019-02-09T15:03:26.107Z,10.00
2019-02-09T15:05:51.072Z,10.00
2019-02-09T15:08:20.463Z,10.00
2019-02-09T15:10:49.749Z,9.90
2019-02-09T15:13:19.270Z,9.90
2019-02-09T15:15:54.474Z,9.80
2019-02-09T15:18:23.842Z,9.70
2019-02-09T15:21:02.634Z,9.70
2019-02-09T15:23:31.991Z,9.60
2019-02-09T15:26:01.412Z,9.60
2019-02-09T15:28:31.138Z,9.50
2019-02-09T15:31:00.484Z,9.50
2019-02-09T15:33:29.875Z,9.50
2019-02-09T15:35:59.228Z,9.50
2019-02-09T15:38:28.499Z,9.40
2019-02-09T15:40:58.019Z,9.40
2019-02-09T15:43:27.427Z,9.40
2019-02-09T15:45:56.776Z,9.30
2019-02-09T15:48:26.107Z,9.30
2019-02-09T15:50:55.390Z,9.30
2019-02-09T15:53:24.667Z,9.30
2019-02-09T15:55:53.954Z,9.40
2019-02-09T15:58:23.231Z,9.40
2019-02-09T16:00:52.584Z,9.30
2019-02-09T16:03:21.870Z,9.30
2019-02-09T16:05:51.160Z,9.30
2019-02-09T16:08:20.718Z,9.30
2019-02-09T16:10:50.054Z,9.20
2019-02-09T16:13:19.751Z,9.20
2019-02-09T16:15:49.022Z,9.10
2019-02-09T16:18:18.439Z,9.10
2019-02-09T16:20:47.758Z,9.10
2019-02-09T16:23:17.334Z,9.00
2019-02-09T16:25:46.631Z,9.00
2019-02-09T16:28:15.937Z,8.90
2019-02-09T16:30:45.266Z,8.90
2019-02-09T16:33:14.562Z,8.90
2019-02-09T16:35:43.839Z,8.80
2019-02-09T16:38:13.131Z,8.80
2019-02-09T16:40:42.422Z,8.80
2019-02-09T16:43:11.690Z,8.70
2019-02-09T16:45:41.280Z,8.70
2019-02-09T16:48:12.156Z,8.60
2019-02-09T16:50:41.477Z,8.60
2019-02-09T16:53:10.796Z,8.50
2019-02-09T16:55:40.087Z,8.50
2019-02-09T16:58:09.387Z,8.50
2019-02-09T17:00:41.464Z,8.50
2019-02-09T17:03:11.901Z,8.40
2019-02-09T17:05:41.524Z,8.40
2019-02-09T17:08:10.885Z,8.40
2019-02-09T17:10:40.339Z,8.30
2019-02-09T17:13:09.702Z,8.60
2019-02-09T17:15:38.977Z,9.00
2019-02-09T17:18:09.028Z,9.10
2019-02-09T17:20:38.378Z,8.90
2019-02-09T17:23:08.251Z,8.90
2019-02-09T17:25:37.537Z,9.10
2019-02-09T17:28:07.019Z,9.00
2019-02-09T17:30:39.239Z,9.10
2019-02-09T17:33:08.602Z,9.00
2019-02-09T17:35:37.942Z,9.00
2019-02-09T17:38:07.302Z,8.60
2019-02-09T17:40:42.446Z,8.40
2019-02-09T17:43:11.919Z,8.30
2019-02-09T17:45:49.452Z,8.20
2019-02-09T17:48:18.746Z,8.10
2019-02-09T17:50:48.174Z,8.00
2019-02-09T17:53:17.450Z,8.00
2019-02-09T17:55:46.747Z,8.00
2019-02-09T17:58:16.054Z,8.00
2019-02-09T18:00:47.100Z,8.00
2019-02-09T18:03:16.452Z,8.00
2019-02-09T18:05:45.758Z,8.00
2019-02-09T18:08:15.036Z,8.00
2019-02-09T18:10:44.377Z,8.00
2019-02-09T18:13:13.692Z,8.00
2019-02-09T18:15:43.047Z,8.10
2019-02-09T18:18:12.378Z,8.10
2019-02-09T18:20:41.699Z,8.00
2019-02-09T18:23:10.997Z,8.00
2019-02-09T18:25:40.361Z,7.90
2019-02-09T18:28:10.023Z,7.90
2019-02-09T18:30:39.433Z,7.80
2019-02-09T18:33:08.971Z,7.70
2019-02-09T18:35:38.385Z,7.60
2019-02-09T18:38:07.666Z,7.60
2019-02-09T18:40:37.194Z,7.60
2019-02-09T18:43:06.483Z,7.50
2019-02-09T18:45:35.834Z,7.50
2019-02-09T18:48:05.556Z,7.40
2019-02-09T18:50:34.825Z,7.40
2019-02-09T18:53:04.463Z,7.30
2019-02-09T18:55:33.921Z,7.30
2019-02-09T18:58:03.275Z,7.30
2019-02-09T19:00:35.377Z,7.30
2019-02-09T19:03:06.381Z,7.20
2019-02-09T19:05:36.087Z,7.20
2019-02-09T19:08:06.400Z,7.20
2019-02-09T19:10:36.006Z,7.20
2019-02-09T19:13:06.152Z,7.30
2019-02-09T19:15:35.929Z,7.30
2019-02-09T19:18:06.861Z,7.30
2019-02-09T19:20:39.113Z,7.30
2019-02-09T19:23:08.517Z,7.40
2019-02-09T19:25:37.837Z,7.40
2019-02-09T19:28:07.311Z,7.40
2019-02-09T19:30:36.981Z,7.50
2019-02-09T19:33:06.809Z,7.50
2019-02-09T19:35:36.091Z,7.50
2019-02-09T19:38:15.849Z,7.60
2019-02-09T19:41:08.086Z,7.60
2019-02-09T19:43:59.449Z,7.60
2019-02-09T19:46:39.809Z,7.70
2019-02-09T19:49:18.864Z,7.70
2019-02-09T19:51:59.694Z,7.60
2019-02-09T19:55:00.033Z,7.70
2019-02-09T19:57:34.422Z,7.70
2019-02-09T20:00:25.565Z,7.70
2019-02-09T20:03:10.424Z,7.70
2019-02-09T20:05:50.695Z,7.60
2019-02-09T20:08:28.225Z,7.60
2019-02-09T20:11:02.718Z,7.60
2019-02-09T20:13:41.395Z,7.60
2019-02-09T20:16:17.459Z,7.60
2019-02-09T20:18:54.644Z,7.50
2019-02-09T20:21:49.001Z,7.50
2019-02-09T20:24:27.759Z,7.40
2019-02-09T20:27:07.888Z,7.40
2019-02-09T20:29:47.132Z,7.40
2019-02-09T20:32:26.031Z,7.40
2019-02-09T20:35:03.949Z,7.40
2019-02-09T20:37:42.807Z,7.30
2019-02-09T20:40:28.999Z,7.30
2019-02-09T20:43:10.734Z,7.20
2019-02-09T20:45:45.210Z,7.30
2019-02-09T20:48:23.604Z,7.30
2019-02-09T20:51:01.136Z,7.30
2019-02-09T20:53:41.533Z,7.30
2019-02-09T20:56:16.627Z,7.20
2019-02-09T20:58:52.941Z,7.20
2019-02-09T21:01:33.335Z,7.20
2019-02-09T21:04:10.605Z,7.20
2019-02-09T21:06:49.298Z,7.20
2019-02-09T21:09:27.825Z,7.10
2019-02-09T21:12:04.661Z,7.10
2019-02-09T21:14:42.112Z,7.10
2019-02-09T21:17:21.044Z,7.00
2019-02-09T21:20:02.744Z,7.00
2019-02-09T21:22:52.283Z,6.90
2019-02-09T21:25:46.415Z,6.80
2019-02-09T21:28:29.946Z,6.70
2019-02-09T21:31:17.357Z,6.70
2019-02-09T21:33:55.751Z,6.70
2019-02-09T21:36:31.876Z,6.60
2019-02-09T21:39:14.218Z,6.60
2019-02-09T21:41:51.019Z,6.60
2019-02-09T21:44:27.851Z,6.60
2019-02-09T21:47:09.250Z,6.50
2019-02-09T21:49:47.721Z,6.50
2019-02-09T21:52:28.958Z,6.50
2019-02-09T21:55:06.223Z,6.50
2019-02-09T21:57:40.992Z,6.50
2019-02-09T22:00:18.427Z,6.50
2019-02-09T22:02:57.357Z,6.50
2019-02-09T22:05:40.870Z,6.60
2019-02-09T22:08:19.753Z,6.50
2019-02-09T22:10:53.466Z,6.60
2019-02-09T22:13:28.731Z,6.50
2019-02-09T22:16:05.193Z,6.50
2019-02-09T22:18:41.159Z,6.50
2019-02-09T22:21:21.693Z,6.50
2019-02-09T22:24:00.275Z,6.50
2019-02-09T22:26:40.394Z,6.50
2019-02-09T22:29:14.507Z,6.50
2019-02-09T22:31:52.253Z,6.50
2019-02-09T22:34:30.639Z,6.50
2019-02-09T22:37:11.308Z,6.50
2019-02-09T22:39:49.357Z,6.50
2019-02-09T22:42:28.367Z,6.80
2019-02-09T22:45:06.524Z,7.00
2019-02-09T22:47:46.037Z,7.30
2019-02-09T22:50:37.570Z,7.20
2019-02-09T22:53:14.341Z,7.10
2019-02-09T22:55:53.970Z,6.90
2019-02-09T22:58:28.671Z,6.80
2019-02-09T23:01:23.671Z,6.90
2019-02-09T23:04:04.520Z,7.10
2019-02-09T23:06:52.739Z,7.40
2019-02-09T23:09:25.945Z,7.50
2019-02-09T23:12:03.031Z,7.40
2019-02-09T23:14:47.175Z,7.10
2019-02-09T23:17:33.846Z,6.90
2019-02-09T23:20:20.479Z,6.90
2019-02-09T23:23:03.542Z,6.70
2019-02-09T23:25:45.949Z,6.70
2019-02-09T23:28:24.150Z,6.70
2019-02-09T23:31:05.850Z,6.70
2019-02-09T23:33:45.451Z,6.60
2019-02-09T23:36:30.865Z,6.60
2019-02-09T23:39:08.522Z,6.50
2019-02-09T23:41:53.836Z,6.50
2019-02-09T23:44:29.688Z,6.60
2019-02-09T23:47:08.599Z,6.60
2019-02-09T23:49:44.482Z,6.60
2019-02-09T23:52:25.455Z,6.70
2019-02-09T23:55:12.218Z,6.70
2019-02-09T23:57:52.916Z,6.70
